Time;durP1;ratioP1;P1;durP2;ratioP2;P2;SDS_P1;SDS_P2;PMS_P1;PMS_P2;Temp;Humidity;BMP_temperature;BMP_pressure;BME280_temperature;BME280_humidity;BME280_pressure;Samples;Min_cycle;Max_cycle;Signal;HPM_P1;HPM_P2
2022/08/26 00:00:25;;;;;;;0.00;0.00;;;;;;;;;;1718203;28;20723;-69
2022/08/26 00:01:16;;;;;;;0.00;0.00;;;;;;;;;;1719380;28;20460;-69
2022/08/26 00:02:09;;;;;;;0.00;0.00;;;;;;;;;;1719145;28;20483;-69
2022/08/26 00:03:00;;;;;;;0.00;0.00;;;;;;;;;;1719849;28;20464;-69
2022/08/26 00:03:52;;;;;;;0.00;0.00;;;;;;;;;;1719282;28;20466;-69
2022/08/26 00:04:44;;;;;;;0.00;0.00;;;;;;;;;;1713282;28;20528;-69
2022/08/26 00:05:36;;;;;;;0.00;0.00;;;;;;;;;;1717363;28;20527;-70
2022/08/26 00:06:27;;;;;;;0.00;0.00;;;;;;;;;;1719596;28;20468;-70
2022/08/26 00:07:19;;;;;;;0.00;0.00;;;;;;;;;;1718759;28;20468;-70
2022/08/26 00:08:12;;;;;;;0.00;0.00;;;;;;;;;;1719875;28;20475;-70
2022/08/26 00:09:05;;;;;;;0.00;0.00;;;;;;;;;;1719591;28;20595;-70
2022/08/26 00:09:57;;;;;;;0.00;0.00;;;;;;;;;;1719788;28;20464;-70
2022/08/26 00:10:50;;;;;;;0.00;0.00;;;;;;;;;;1717644;28;20483;-70
2022/08/26 00:11:41;;;;;;;0.00;0.00;;;;;;;;;;1719290;28;20468;-70
2022/08/26 00:12:33;;;;;;;0.00;0.00;;;;;;;;;;1719358;28;20694;-70
2022/08/26 00:13:25;;;;;;;0.00;0.00;;;;;;;;;;1719510;28;20483;-70
2022/08/26 00:14:18;;;;;;;0.00;0.00;;;;;;;;;;1718368;28;20637;-70
2022/08/26 00:15:10;;;;;;;0.00;0.00;;;;;;;;;;1718942;28;20766;-71
2022/08/26 00:16:03;;;;;;;0.00;0.00;;;;;;;;;;1718782;28;20865;-70
2022/08/26 00:16:54;;;;;;;0.00;0.00;;;;;;;;;;1719768;28;20464;-70
2022/08/26 00:17:47;;;;;;;0.00;0.00;;;;;;;;;;1719478;28;20474;-70
2022/08/26 00:18:38;;;;;;;0.00;0.00;;;;;;;;;;1719542;28;20464;-70
2022/08/26 00:19:30;;;;;;;0.00;0.00;;;;;;;;;;1719949;28;20537;-70
2022/08/26 00:20:24;;;;;;;0.00;0.00;;;;;;;;;;1718014;28;20472;-70
2022/08/26 00:21:17;;;;;;;0.00;0.00;;;;;;;;;;1719641;28;20490;-70
2022/08/26 00:22:08;;;;;;;0.00;0.00;;;;;;;;;;1719281;28;20699;-70
2022/08/26 00:23:01;;;;;;;0.00;0.00;;;;;;;;;;1719520;28;20510;-70
2022/08/26 00:23:52;;;;;;;0.00;0.00;;;;;;;;;;1719265;28;20856;-70
2022/08/26 00:24:44;;;;;;;0.00;0.00;;;;;;;;;;1713384;28;20471;-70
2022/08/26 00:25:36;;;;;;;0.00;0.00;;;;;;;;;;1717325;28;21188;-70
2022/08/26 00:26:28;;;;;;;0.00;0.00;;;;;;;;;;1719804;28;20479;-71
2022/08/26 00:27:19;;;;;;;0.00;0.00;;;;;;;;;;1719164;28;20480;-70
2022/08/26 00:28:12;;;;;;;0.00;0.00;;;;;;;;;;1719590;28;20460;-70
2022/08/26 00:29:03;;;;;;;0.00;0.00;;;;;;;;;;1719277;28;20821;-70
2022/08/26 00:29:56;;;;;;;0.00;0.00;;;;;;;;;;1719749;28;20468;-70
2022/08/26 00:30:48;;;;;;;0.00;0.00;;;;;;;;;;1717744;28;20526;-69
2022/08/26 00:31:40;;;;;;;0.00;0.00;;;;;;;;;;1719626;28;20468;-69
2022/08/26 00:32:32;;;;;;;0.00;0.00;;;;;;;;;;1719169;28;20768;-69
2022/08/26 00:33:24;;;;;;;0.00;0.00;;;;;;;;;;1719197;28;20474;-69
2022/08/26 00:34:15;;;;;;;0.00;0.00;;;;;;;;;;1719369;28;20486;-69
2022/08/26 00:35:11;;;;;;;0.00;0.00;;;;;;;;;;1719604;28;20459;-69
2022/08/26 00:36:03;;;;;;;0.00;0.00;;;;;;;;;;1718409;28;20516;-70
2022/08/26 00:36:56;;;;;;;0.00;0.00;;;;;;;;;;1719170;28;20468;-70
2022/08/26 00:37:47;;;;;;;0.00;0.00;;;;;;;;;;1732783;28;20823;-70
2022/08/26 00:38:39;;;;;;;0.00;0.00;;;;;;;;;;1732501;28;20477;-70
2022/08/26 00:39:30;;;;;;;0.00;0.00;;;;;;;;;;1733112;28;20837;-70
2022/08/26 00:40:25;;;;;;;0.00;0.00;;;;;;;;;;1731490;28;20565;-70
2022/08/26 00:41:18;;;;;;;0.00;0.00;;;;;;;;;;1733173;28;20466;-70
2022/08/26 00:42:11;;;;;;;0.00;0.00;;;;;;;;;;1732491;28;20532;-70
2022/08/26 00:43:02;;;;;;;0.00;0.00;;;;;;;;;;1732760;28;20931;-70
2022/08/26 00:43:55;;;;;;;0.00;0.00;;;;;;;;;;1732197;28;20462;-70
2022/08/26 00:44:46;;;;;;;0.00;0.00;;;;;;;;;;1732814;28;20462;-70
2022/08/26 00:45:42;;;;;;;0.00;0.00;;;;;;;;;;1731299;28;20495;-70
2022/08/26 00:46:34;;;;;;;0.00;0.00;;;;;;;;;;1726559;28;20784;-70
2022/08/26 00:47:30;;;;;;;0.00;0.00;;;;;;;;;;1732944;28;20458;-70
2022/08/26 00:48:24;;;;;;;0.00;0.00;;;;;;;;;;1732818;28;20458;-70
2022/08/26 00:49:18;;;;;;;0.00;0.00;;;;;;;;;;1732655;28;20556;-70
2022/08/26 00:50:11;;;;;;;0.00;0.00;;;;;;;;;;1732884;28;20465;-70
2022/08/26 00:51:04;;;;;;;0.00;0.00;;;;;;;;;;1731598;28;20985;-70
2022/08/26 00:51:59;;;;;;;0.00;0.00;;;;;;;;;;1732224;28;20851;-70
2022/08/26 00:52:52;;;;;;;0.00;0.00;;;;;;;;;;1732913;28;20458;-70
2022/08/26 00:53:47;;;;;;;0.00;0.00;;;;;;;;;;1732548;28;21876;-70
2022/08/26 00:54:45;;;;;;;0.00;0.00;;;;;;;;;;1733171;28;20553;-70
2022/08/26 00:55:38;;;;;;;0.00;0.00;;;;;;;;;;1731202;28;20879;-69
2022/08/26 00:56:33;;;;;;;0.00;0.00;;;;;;;;;;1733087;28;20957;-69
2022/08/26 00:57:24;;;;;;;0.00;0.00;;;;;;;;;;1732636;28;20524;-69
2022/08/26 00:58:17;;;;;;;0.00;0.00;;;;;;;;;;1732916;28;20866;-69
2022/08/26 00:59:10;;;;;;;0.00;0.00;;;;;;;;;;1732098;28;20532;-69
2022/08/26 01:00:03;;;;;;;0.00;0.00;;;;;;;;;;1732862;28;20504;-69
2022/08/26 01:00:55;;;;;;;0.00;0.00;;;;;;;;;;1731447;28;20494;-69
2022/08/26 01:01:48;;;;;;;0.00;0.00;;;;;;;;;;1732429;28;20470;-69
2022/08/26 01:02:39;;;;;;;0.00;0.00;;;;;;;;;;1733200;28;20466;-69
2022/08/26 01:03:34;;;;;;;0.00;0.00;;;;;;;;;;1732700;28;20473;-69
2022/08/26 01:04:25;;;;;;;0.00;0.00;;;;;;;;;;1732989;28;20466;-69
2022/08/26 01:05:17;;;;;;;0.00;0.00;;;;;;;;;;1731405;28;20477;-70
2022/08/26 01:06:09;;;;;;;0.00;0.00;;;;;;;;;;1732734;28;20830;-70
2022/08/26 01:07:01;;;;;;;0.00;0.00;;;;;;;;;;1732074;28;20638;-70
2022/08/26 01:07:52;;;;;;;0.00;0.00;;;;;;;;;;1733007;28;20466;-70
2022/08/26 01:08:44;;;;;;;0.00;0.00;;;;;;;;;;1732511;28;20497;-70
2022/08/26 01:09:37;;;;;;;0.00;0.00;;;;;;;;;;1733062;28;20581;-70
2022/08/26 01:10:30;;;;;;;0.00;0.00;;;;;;;;;;1731352;28;20545;-70
2022/08/26 01:11:22;;;;;;;0.00;0.00;;;;;;;;;;1732638;28;20825;-70
2022/08/26 01:12:15;;;;;;;0.00;0.00;;;;;;;;;;1732143;28;20469;-70
2022/08/26 01:13:08;;;;;;;0.00;0.00;;;;;;;;;;1733143;28;20466;-70
2022/08/26 01:14:02;;;;;;;0.00;0.00;;;;;;;;;;1732349;28;20465;-70
2022/08/26 01:14:54;;;;;;;0.00;0.00;;;;;;;;;;1732868;28;20463;-70
2022/08/26 01:15:48;;;;;;;0.00;0.00;;;;;;;;;;1731080;28;20478;-69
2022/08/26 01:16:41;;;;;;;0.00;0.00;;;;;;;;;;1732332;28;20469;-70
2022/08/26 01:17:33;;;;;;;0.00;0.00;;;;;;;;;;1733365;28;20466;-69
2022/08/26 01:18:25;;;;;;;0.00;0.00;;;;;;;;;;1732519;28;20462;-69
2022/08/26 01:19:22;;;;;;;0.00;0.00;;;;;;;;;;1732785;28;20474;-69
2022/08/26 01:20:18;;;;;;;0.00;0.00;;;;;;;;;;1731398;28;20466;-70
2022/08/26 01:21:17;;;;;;;0.00;0.00;;;;;;;;;;1733186;28;20777;-70
2022/08/26 01:22:10;;;;;;;0.00;0.00;;;;;;;;;;1731708;28;20462;-70
2022/08/26 01:23:05;;;;;;;0.00;0.00;;;;;;;;;;1732972;28;21029;-70
2022/08/26 01:23:57;;;;;;;0.00;0.00;;;;;;;;;;1732172;28;20592;-70
2022/08/26 01:24:50;;;;;;;0.00;0.00;;;;;;;;;;1732885;28;20462;-70
2022/08/26 01:25:42;;;;;;;0.00;0.00;;;;;;;;;;1731273;28;20497;-70
2022/08/26 01:26:37;;;;;;;0.00;0.00;;;;;;;;;;1732953;28;20517;-70
2022/08/26 01:27:31;;;;;;;0.00;0.00;;;;;;;;;;1732096;28;20470;-70
2022/08/26 01:28:24;;;;;;;0.00;0.00;;;;;;;;;;1732616;28;20473;-70
2022/08/26 01:29:17;;;;;;;0.00;0.00;;;;;;;;;;1732525;28;20473;-70
2022/08/26 01:30:10;;;;;;;0.00;0.00;;;;;;;;;;1732136;28;20479;-71
2022/08/26 01:31:03;;;;;;;0.00;0.00;;;;;;;;;;1732256;28;20477;-70
2022/08/26 01:31:57;;;;;;;0.00;0.00;;;;;;;;;;1732148;28;20524;-70
2022/08/26 01:32:50;;;;;;;0.00;0.00;;;;;;;;;;1732426;28;20470;-70
2022/08/26 01:33:46;;;;;;;0.00;0.00;;;;;;;;;;1732279;28;20532;-70
2022/08/26 01:34:38;;;;;;;0.00;0.00;;;;;;;;;;1732962;28;20535;-70
2022/08/26 01:35:31;;;;;;;0.00;0.00;;;;;;;;;;1731319;28;20498;-70
2022/08/26 01:36:22;;;;;;;0.00;0.00;;;;;;;;;;1732680;28;20466;-70
2022/08/26 01:37:15;;;;;;;0.00;0.00;;;;;;;;;;1731885;28;20919;-70
2022/08/26 01:38:09;;;;;;;0.00;0.00;;;;;;;;;;1732732;28;20462;-70
2022/08/26 01:39:01;;;;;;;0.00;0.00;;;;;;;;;;1731993;28;20774;-70
2022/08/26 01:39:54;;;;;;;0.00;0.00;;;;;;;;;;1732861;28;20466;-70
2022/08/26 01:40:46;;;;;;;0.00;0.00;;;;;;;;;;1731135;28;20544;-70
2022/08/26 01:41:39;;;;;;;0.00;0.00;;;;;;;;;;1732753;28;20482;-70
2022/08/26 01:42:31;;;;;;;0.00;0.00;;;;;;;;;;1732104;28;20473;-70
2022/08/26 01:43:24;;;;;;;0.00;0.00;;;;;;;;;;1732301;28;20473;-70
2022/08/26 01:44:18;;;;;;;0.00;0.00;;;;;;;;;;1732108;28;20788;-70
2022/08/26 01:45:12;;;;;;;0.00;0.00;;;;;;;;;;1732198;28;20455;-70
2022/08/26 01:46:04;;;;;;;0.00;0.00;;;;;;;;;;1732022;28;20874;-70
2022/08/26 01:46:56;;;;;;;0.00;0.00;;;;;;;;;;1732683;28;20501;-70
2022/08/26 01:47:50;;;;;;;0.00;0.00;;;;;;;;;;1732628;28;20501;-70
2022/08/26 01:48:43;;;;;;;0.00;0.00;;;;;;;;;;1732226;28;20462;-70
2022/08/26 01:49:35;;;;;;;0.00;0.00;;;;;;;;;;1732569;28;20540;-70
2022/08/26 01:50:29;;;;;;;0.00;0.00;;;;;;;;;;1730993;28;20466;-69
2022/08/26 01:51:22;;;;;;;0.00;0.00;;;;;;;;;;1732735;28;20493;-69
2022/08/26 01:52:16;;;;;;;0.00;0.00;;;;;;;;;;1731765;28;20463;-69
2022/08/26 01:53:11;;;;;;;0.00;0.00;;;;;;;;;;1732855;28;20470;-69
2022/08/26 01:54:03;;;;;;;0.00;0.00;;;;;;;;;;1732296;28;20463;-69
2022/08/26 01:54:56;;;;;;;0.00;0.00;;;;;;;;;;1732235;28;20494;-69
2022/08/26 01:55:49;;;;;;;0.00;0.00;;;;;;;;;;1731145;28;20474;-70
2022/08/26 01:56:42;;;;;;;0.00;0.00;;;;;;;;;;1732618;28;20462;-70
2022/08/26 01:57:33;;;;;;;0.00;0.00;;;;;;;;;;1732502;28;20462;-70
2022/08/26 01:58:28;;;;;;;0.00;0.00;;;;;;;;;;1732308;28;20470;-70
2022/08/26 01:59:20;;;;;;;0.00;0.00;;;;;;;;;;1731769;28;20954;-70
2022/08/26 02:00:12;;;;;;;0.00;0.00;;;;;;;;;;1731628;28;20462;-68
2022/08/26 02:01:04;;;;;;;0.00;0.00;;;;;;;;;;1731888;28;20484;-69
2022/08/26 02:01:56;;;;;;;0.00;0.00;;;;;;;;;;1731940;28;20470;-69
2022/08/26 02:02:49;;;;;;;0.00;0.00;;;;;;;;;;1732547;28;20472;-69
2022/08/26 02:03:50;;;;;;;0.00;0.00;;;;;;;;;;1732190;28;20462;-69
2022/08/26 02:04:46;;;;;;;0.00;0.00;;;;;;;;;;1732788;28;20985;-69
2022/08/26 02:05:38;;;;;;;0.00;0.00;;;;;;;;;;1730731;28;20561;-70
2022/08/26 02:06:30;;;;;;;0.00;0.00;;;;;;;;;;1732744;28;20850;-70
2022/08/26 02:07:21;;;;;;;0.00;0.00;;;;;;;;;;1731460;28;20470;-70
2022/08/26 02:08:16;;;;;;;0.00;0.00;;;;;;;;;;1732578;28;20842;-70
2022/08/26 02:09:07;;;;;;;0.00;0.00;;;;;;;;;;1732352;28;20467;-70
2022/08/26 02:10:01;;;;;;;0.00;0.00;;;;;;;;;;1732281;28;20865;-70
2022/08/26 02:10:52;;;;;;;0.00;0.00;;;;;;;;;;1730650;28;20524;-69
2022/08/26 02:11:45;;;;;;;0.00;0.00;;;;;;;;;;1732360;28;20942;-69
2022/08/26 02:12:36;;;;;;;0.00;0.00;;;;;;;;;;1732461;28;20821;-69
2022/08/26 02:13:30;;;;;;;0.00;0.00;;;;;;;;;;1732234;28;20532;-69
2022/08/26 02:14:23;;;;;;;0.00;0.00;;;;;;;;;;1732390;28;20954;-69
2022/08/26 02:15:15;;;;;;;0.00;0.00;;;;;;;;;;1730947;28;20553;-70
2022/08/26 02:16:07;;;;;;;0.00;0.00;;;;;;;;;;1732364;28;20466;-70
2022/08/26 02:17:02;;;;;;;0.00;0.00;;;;;;;;;;1732618;28;20803;-70
2022/08/26 02:17:53;;;;;;;0.00;0.00;;;;;;;;;;1732658;28;21037;-70
2022/08/26 02:18:46;;;;;;;0.00;0.00;;;;;;;;;;1732046;28;20474;-70
2022/08/26 02:19:39;;;;;;;0.00;0.00;;;;;;;;;;1732497;28;20470;-70
2022/08/26 02:20:31;;;;;;;0.00;0.00;;;;;;;;;;1730994;28;20485;-70
2022/08/26 02:21:22;;;;;;;0.00;0.00;;;;;;;;;;1732321;28;20462;-70
2022/08/26 02:22:15;;;;;;;0.00;0.00;;;;;;;;;;1731598;28;20528;-70
2022/08/26 02:23:08;;;;;;;0.00;0.00;;;;;;;;;;1726027;28;20478;-70
2022/08/26 02:24:09;;;;;;;0.00;0.00;;;;;;;;;;1731354;28;20796;-70
2022/08/26 02:25:08;;;;;;;0.00;0.00;;;;;;;;;;1732468;28;20462;-70
2022/08/26 02:26:03;;;;;;;0.00;0.00;;;;;;;;;;1730354;28;20557;-70
2022/08/26 02:26:54;;;;;;;0.00;0.00;;;;;;;;;;1731796;28;20490;-70
2022/08/26 02:27:48;;;;;;;0.00;0.00;;;;;;;;;;1732498;28;20465;-70
2022/08/26 02:28:41;;;;;;;0.00;0.00;;;;;;;;;;1732315;28;20466;-70
2022/08/26 02:29:36;;;;;;;0.00;0.00;;;;;;;;;;1732743;28;20206;-70
2022/08/26 02:30:30;;;;;;;0.00;0.00;;;;;;;;;;1730902;28;20493;-69
2022/08/26 02:31:22;;;;;;;0.00;0.00;;;;;;;;;;1732615;28;20484;-69
2022/08/26 02:32:13;;;;;;;0.00;0.00;;;;;;;;;;1731560;28;20492;-69
2022/08/26 02:33:06;;;;;;;0.00;0.00;;;;;;;;;;1726075;28;20497;-69
2022/08/26 02:34:06;;;;;;;0.00;0.00;;;;;;;;;;1731106;28;20462;-69
2022/08/26 02:34:58;;;;;;;0.00;0.00;;;;;;;;;;1732594;28;20470;-69
2022/08/26 02:35:49;;;;;;;0.00;0.00;;;;;;;;;;1731099;28;20513;-70
2022/08/26 02:36:42;;;;;;;0.00;0.00;;;;;;;;;;1732461;28;20837;-70
2022/08/26 02:37:33;;;;;;;0.00;0.00;;;;;;;;;;1731809;28;20497;-70
2022/08/26 02:38:31;;;;;;;0.00;0.00;;;;;;;;;;1731878;28;20577;-70
2022/08/26 02:39:24;;;;;;;0.00;0.00;;;;;;;;;;1732042;28;20458;-70
2022/08/26 02:40:17;;;;;;;0.00;0.00;;;;;;;;;;1730914;28;20474;-69
2022/08/26 02:41:09;;;;;;;0.00;0.00;;;;;;;;;;1732618;28;20233;-69
2022/08/26 02:42:01;;;;;;;0.00;0.00;;;;;;;;;;1731805;28;20469;-69
2022/08/26 02:42:52;;;;;;;0.00;0.00;;;;;;;;;;1732195;28;20871;-69
2022/08/26 02:43:44;;;;;;;0.00;0.00;;;;;;;;;;1731867;28;20508;-69
2022/08/26 02:44:36;;;;;;;0.00;0.00;;;;;;;;;;1732656;28;20458;-69
2022/08/26 02:45:28;;;;;;;0.00;0.00;;;;;;;;;;1730546;28;20462;-69
2022/08/26 02:46:19;;;;;;;0.00;0.00;;;;;;;;;;1732534;28;20854;-69
2022/08/26 02:47:13;;;;;;;0.00;0.00;;;;;;;;;;1732594;28;21062;-69
2022/08/26 02:48:09;;;;;;;0.00;0.00;;;;;;;;;;1729278;28;20462;-69
2022/08/26 02:49:02;;;;;;;0.00;0.00;;;;;;;;;;1731813;28;20470;-69
2022/08/26 02:49:53;;;;;;;0.00;0.00;;;;;;;;;;1732383;28;21010;-69
2022/08/26 02:50:45;;;;;;;0.00;0.00;;;;;;;;;;1730883;28;20478;-70
2022/08/26 02:51:37;;;;;;;0.00;0.00;;;;;;;;;;1732499;28;20462;-70
2022/08/26 02:52:29;;;;;;;0.00;0.00;;;;;;;;;;1731739;28;20472;-70
2022/08/26 02:53:20;;;;;;;0.00;0.00;;;;;;;;;;1730364;28;20898;-70
2022/08/26 02:54:14;;;;;;;0.00;0.00;;;;;;;;;;1731646;28;20486;-70
2022/08/26 02:55:08;;;;;;;0.00;0.00;;;;;;;;;;1732084;28;20621;-71
2022/08/26 02:56:00;;;;;;;0.00;0.00;;;;;;;;;;1730945;28;20328;-71
2022/08/26 02:56:51;;;;;;;0.00;0.00;;;;;;;;;;1731931;28;20211;-70
2022/08/26 02:57:44;;;;;;;0.00;0.00;;;;;;;;;;1732304;28;20531;-71
2022/08/26 02:58:35;;;;;;;0.00;0.00;;;;;;;;;;1732156;28;20473;-71
2022/08/26 02:59:28;;;;;;;0.00;0.00;;;;;;;;;;1732030;28;20584;-71
2022/08/26 03:00:19;;;;;;;0.00;0.00;;;;;;;;;;1730632;28;20473;-69
2022/08/26 03:01:19;;;;;;;0.00;0.00;;;;;;;;;;1732579;28;20524;-69
2022/08/26 03:02:11;;;;;;;0.00;0.00;;;;;;;;;;1731764;28;20208;-69
2022/08/26 03:03:03;;;;;;;0.00;0.00;;;;;;;;;;1732561;28;20212;-69
2022/08/26 03:03:54;;;;;;;0.00;0.00;;;;;;;;;;1731643;28;20481;-69
2022/08/26 03:04:46;;;;;;;0.00;0.00;;;;;;;;;;1732238;28;20889;-69
2022/08/26 03:05:38;;;;;;;0.00;0.00;;;;;;;;;;1731084;28;20481;-70
2022/08/26 03:06:30;;;;;;;0.00;0.00;;;;;;;;;;1731190;28;20977;-71
2022/08/26 03:07:22;;;;;;;0.00;0.00;;;;;;;;;;1732141;28;20478;-71
2022/08/26 03:08:13;;;;;;;0.00;0.00;;;;;;;;;;1733683;28;20776;-71
2022/08/26 03:09:05;;;;;;;0.00;0.00;;;;;;;;;;1734013;28;21006;-71
2022/08/26 03:09:57;;;;;;;0.00;0.00;;;;;;;;;;1733549;28;20806;-70
2022/08/26 03:10:50;;;;;;;0.00;0.00;;;;;;;;;;1732203;28;20231;-70
2022/08/26 03:11:41;;;;;;;0.00;0.00;;;;;;;;;;1733638;28;20478;-71
2022/08/26 03:12:34;;;;;;;0.00;0.00;;;;;;;;;;1733145;28;20494;-71
2022/08/26 03:13:25;;;;;;;0.00;0.00;;;;;;;;;;1733321;28;20884;-71
2022/08/26 03:14:17;;;;;;;0.00;0.00;;;;;;;;;;1733551;28;20787;-71
2022/08/26 03:15:10;;;;;;;0.00;0.00;;;;;;;;;;1733104;28;20754;-69
2022/08/26 03:16:02;;;;;;;0.00;0.00;;;;;;;;;;1732307;28;20223;-69
2022/08/26 03:16:54;;;;;;;0.00;0.00;;;;;;;;;;1733381;28;20462;-69
2022/08/26 03:17:47;;;;;;;0.00;0.00;;;;;;;;;;1733591;28;20961;-69
2022/08/26 03:18:38;;;;;;;0.00;0.00;;;;;;;;;;1733397;28;20219;-69
2022/08/26 03:19:32;;;;;;;0.00;0.00;;;;;;;;;;1733703;28;21058;-69
2022/08/26 03:20:23;;;;;;;0.00;0.00;;;;;;;;;;1731875;28;21020;-70
2022/08/26 03:21:17;;;;;;;0.00;0.00;;;;;;;;;;1731065;28;20489;-70
2022/08/26 03:22:08;;;;;;;0.00;0.00;;;;;;;;;;1732810;28;20461;-71
2022/08/26 03:23:00;;;;;;;0.00;0.00;;;;;;;;;;1733473;28;20453;-71
2022/08/26 03:23:51;;;;;;;0.00;0.00;;;;;;;;;;1733638;28;20226;-71
2022/08/26 03:24:43;;;;;;;0.00;0.00;;;;;;;;;;1733754;28;20204;-71
2022/08/26 03:25:34;;;;;;;0.00;0.00;;;;;;;;;;1732091;28;20816;-69
2022/08/26 03:26:28;;;;;;;0.00;0.00;;;;;;;;;;1733540;28;20807;-69
2022/08/26 03:27:19;;;;;;;0.00;0.00;;;;;;;;;;1732881;28;20482;-69
2022/08/26 03:28:12;;;;;;;0.00;0.00;;;;;;;;;;1733820;28;20580;-69
2022/08/26 03:31:24;;;;;;;0.00;0.00;;;;;;;;;;1726546;28;20523;-70
2022/08/26 03:32:16;;;;;;;0.00;0.00;;;;;;;;;;1731308;28;20200;-71
2022/08/26 03:33:09;;;;;;;0.00;0.00;;;;;;;;;;1733862;28;20470;-71
2022/08/26 03:34:02;;;;;;;0.00;0.00;;;;;;;;;;1733152;28;20554;-71
2022/08/26 03:34:53;;;;;;;0.00;0.00;;;;;;;;;;1733585;28;20706;-70
2022/08/26 03:35:47;;;;;;;0.00;0.00;;;;;;;;;;1732178;28;20504;-69
2022/08/26 03:36:39;;;;;;;0.00;0.00;;;;;;;;;;1733453;28;20489;-69
2022/08/26 03:37:30;;;;;;;0.00;0.00;;;;;;;;;;1732731;28;20548;-69
2022/08/26 03:38:24;;;;;;;0.00;0.00;;;;;;;;;;1733375;28;20543;-69
2022/08/26 03:39:16;;;;;;;0.00;0.00;;;;;;;;;;1733372;28;20462;-69
2022/08/26 03:40:09;;;;;;;0.00;0.00;;;;;;;;;;1733458;28;20241;-70
2022/08/26 03:41:01;;;;;;;0.00;0.00;;;;;;;;;;1734593;28;20496;-70
2022/08/26 03:41:54;;;;;;;0.00;0.00;;;;;;;;;;1733174;28;20246;-70
2022/08/26 03:42:46;;;;;;;0.00;0.00;;;;;;;;;;1733190;28;20485;-71
2022/08/26 03:43:37;;;;;;;0.00;0.00;;;;;;;;;;1733412;28;20914;-71
2022/08/26 03:44:30;;;;;;;0.00;0.00;;;;;;;;;;1733514;28;20199;-71
2022/08/26 03:45:21;;;;;;;0.00;0.00;;;;;;;;;;1731664;28;20466;-69
2022/08/26 03:46:13;;;;;;;0.00;0.00;;;;;;;;;;1733630;28;20191;-69
2022/08/26 03:47:06;;;;;;;0.00;0.00;;;;;;;;;;1733696;28;20402;-69
2022/08/26 03:47:58;;;;;;;0.00;0.00;;;;;;;;;;1733507;28;20853;-69
2022/08/26 03:48:49;;;;;;;0.00;0.00;;;;;;;;;;1732849;28;20207;-69
2022/08/26 03:49:41;;;;;;;0.00;0.00;;;;;;;;;;1733715;28;20203;-69
2022/08/26 03:50:33;;;;;;;0.00;0.00;;;;;;;;;;1732102;28;20296;-69
2022/08/26 03:51:25;;;;;;;0.00;0.00;;;;;;;;;;1726818;28;20197;-69
2022/08/26 03:52:17;;;;;;;0.00;0.00;;;;;;;;;;1731703;28;20203;-69
2022/08/26 03:53:09;;;;;;;0.00;0.00;;;;;;;;;;1733846;28;20462;-69
2022/08/26 03:54:01;;;;;;;0.00;0.00;;;;;;;;;;1732776;28;20588;-69
2022/08/26 03:54:53;;;;;;;0.00;0.00;;;;;;;;;;1733653;28;20466;-69
2022/08/26 03:55:45;;;;;;;0.00;0.00;;;;;;;;;;1731955;28;20235;-70
2022/08/26 03:56:37;;;;;;;0.00;0.00;;;;;;;;;;1733504;28;20934;-70
2022/08/26 03:57:30;;;;;;;0.00;0.00;;;;;;;;;;1733165;28;20479;-70
2022/08/26 03:58:24;;;;;;;0.00;0.00;;;;;;;;;;1733227;28;20655;-70
2022/08/26 03:59:15;;;;;;;0.00;0.00;;;;;;;;;;1732871;28;21312;-70
2022/08/26 04:00:13;;;;;;;0.00;0.00;;;;;;;;;;1733209;28;20206;-70
2022/08/26 04:01:05;;;;;;;0.00;0.00;;;;;;;;;;1732314;28;20580;-71
2022/08/26 04:01:57;;;;;;;0.00;0.00;;;;;;;;;;1732701;28;20501;-70
2022/08/26 04:02:49;;;;;;;0.00;0.00;;;;;;;;;;1733302;28;20204;-70
2022/08/26 04:04:00;;;;;;;0.00;0.00;;;;;;;;;;1733076;28;20207;-70
2022/08/26 04:04:51;;;;;;;0.00;0.00;;;;;;;;;;1726310;28;20350;-70
2022/08/26 04:05:43;;;;;;;0.00;0.00;;;;;;;;;;1731631;28;20254;-71
2022/08/26 04:06:36;;;;;;;0.00;0.00;;;;;;;;;;1733563;28;20466;-70
2022/08/26 04:07:28;;;;;;;0.00;0.00;;;;;;;;;;1732402;28;21001;-70
2022/08/26 04:08:20;;;;;;;0.00;0.00;;;;;;;;;;1733247;28;20199;-70
2022/08/26 04:09:14;;;;;;;0.00;0.00;;;;;;;;;;1733146;28;20268;-70
2022/08/26 04:10:07;;;;;;;0.00;0.00;;;;;;;;;;1732729;28;20215;-70
2022/08/26 04:11:00;;;;;;;0.00;0.00;;;;;;;;;;1734373;28;20494;-70
2022/08/26 04:11:51;;;;;;;0.00;0.00;;;;;;;;;;1737726;28;20309;-70
2022/08/26 04:12:44;;;;;;;0.00;0.00;;;;;;;;;;1733028;28;20214;-70
2022/08/26 04:13:36;;;;;;;0.00;0.00;;;;;;;;;;1732990;28;20223;-70
2022/08/26 04:14:28;;;;;;;0.00;0.00;;;;;;;;;;1733286;28;20200;-71
2022/08/26 04:15:20;;;;;;;0.00;0.00;;;;;;;;;;1731430;28;20517;-69
2022/08/26 04:16:13;;;;;;;0.00;0.00;;;;;;;;;;1733379;28;20238;-69
2022/08/26 04:17:04;;;;;;;0.00;0.00;;;;;;;;;;1732919;28;20593;-69
2022/08/26 04:17:57;;;;;;;0.00;0.00;;;;;;;;;;1732450;28;20210;-69
2022/08/26 04:18:48;;;;;;;0.00;0.00;;;;;;;;;;1732448;28;20219;-69
2022/08/26 04:19:40;;;;;;;0.00;0.00;;;;;;;;;;1733455;28;20203;-69
2022/08/26 04:20:31;;;;;;;0.00;0.00;;;;;;;;;;1731398;28;20564;-69
2022/08/26 04:21:23;;;;;;;0.00;0.00;;;;;;;;;;1733192;28;20253;-69
2022/08/26 04:22:15;;;;;;;0.00;0.00;;;;;;;;;;1732332;28;20264;-69
2022/08/26 04:23:07;;;;;;;0.00;0.00;;;;;;;;;;1733545;28;20571;-69
2022/08/26 04:23:58;;;;;;;0.00;0.00;;;;;;;;;;1732638;28;20644;-69
2022/08/26 04:24:50;;;;;;;0.00;0.00;;;;;;;;;;1733244;28;20892;-69
2022/08/26 04:25:42;;;;;;;0.00;0.00;;;;;;;;;;1731476;28;20297;-70
2022/08/26 04:26:36;;;;;;;0.00;0.00;;;;;;;;;;1733131;28;20458;-70
2022/08/26 04:27:27;;;;;;;0.00;0.00;;;;;;;;;;1732601;28;20204;-70
2022/08/26 04:28:24;;;;;;;0.00;0.00;;;;;;;;;;1732989;28;20579;-70
2022/08/26 04:29:16;;;;;;;0.00;0.00;;;;;;;;;;1733079;28;20207;-70
2022/08/26 04:30:12;;;;;;;0.00;0.00;;;;;;;;;;1733370;28;20196;-70
2022/08/26 04:31:07;;;;;;;0.00;0.00;;;;;;;;;;1731866;28;20789;-70
2022/08/26 04:31:59;;;;;;;0.00;0.00;;;;;;;;;;1731837;28;20227;-70
2022/08/26 04:32:51;;;;;;;0.00;0.00;;;;;;;;;;1733051;28;20211;-70
2022/08/26 04:33:43;;;;;;;0.00;0.00;;;;;;;;;;1732747;28;20206;-70
2022/08/26 04:34:36;;;;;;;0.00;0.00;;;;;;;;;;1733370;28;20257;-71
2022/08/26 04:35:28;;;;;;;0.00;0.00;;;;;;;;;;1731569;28;20196;-70
2022/08/26 04:36:19;;;;;;;0.00;0.00;;;;;;;;;;1733123;28;20548;-71
2022/08/26 04:37:12;;;;;;;0.00;0.00;;;;;;;;;;1732139;28;20208;-70
2022/08/26 04:38:03;;;;;;;0.00;0.00;;;;;;;;;;1733411;28;20215;-70
2022/08/26 04:38:56;;;;;;;0.00;0.00;;;;;;;;;;1732436;28;20203;-70
2022/08/26 04:39:50;;;;;;;0.00;0.00;;;;;;;;;;1733150;28;20444;-70
2022/08/26 04:40:44;;;;;;;0.00;0.00;;;;;;;;;;1731055;28;20612;-69
2022/08/26 04:41:36;;;;;;;0.00;0.00;;;;;;;;;;1733239;28;20203;-69
2022/08/26 04:42:30;;;;;;;0.00;0.00;;;;;;;;;;1732735;28;20265;-69
2022/08/26 04:43:27;;;;;;;0.00;0.00;;;;;;;;;;1732940;28;20525;-69
2022/08/26 04:44:19;;;;;;;0.00;0.00;;;;;;;;;;1732212;28;20283;-69
2022/08/26 04:45:11;;;;;;;0.00;0.00;;;;;;;;;;1723257;28;20541;-72
2022/08/26 04:46:05;;;;;;;0.00;0.00;;;;;;;;;;1732557;28;20269;-71
2022/08/26 04:46:57;;;;;;;0.00;0.00;;;;;;;;;;1732587;28;21331;-71
2022/08/26 04:47:49;;;;;;;0.00;0.00;;;;;;;;;;1732804;28;20517;-71
2022/08/26 04:48:40;;;;;;;0.00;0.00;;;;;;;;;;1732780;28;20219;-71
2022/08/26 04:49:33;;;;;;;0.00;0.00;;;;;;;;;;1733176;28;20514;-71
2022/08/26 04:50:24;;;;;;;0.00;0.00;;;;;;;;;;1731352;28;20204;-69
2022/08/26 04:51:17;;;;;;;0.00;0.00;;;;;;;;;;1733172;28;20200;-69
2022/08/26 04:52:08;;;;;;;0.00;0.00;;;;;;;;;;1732413;28;20204;-69
2022/08/26 04:53:00;;;;;;;0.00;0.00;;;;;;;;;;1732872;28;20216;-69
2022/08/26 04:53:53;;;;;;;0.00;0.00;;;;;;;;;;1732457;28;20549;-69
2022/08/26 04:54:45;;;;;;;0.00;0.00;;;;;;;;;;1726377;28;20196;-69
2022/08/26 04:55:38;;;;;;;0.00;0.00;;;;;;;;;;1730471;28;20246;-71
2022/08/26 04:56:32;;;;;;;0.00;0.00;;;;;;;;;;1733239;28;20199;-71
2022/08/26 04:57:24;;;;;;;0.00;0.00;;;;;;;;;;1732546;28;20204;-71
2022/08/26 04:58:16;;;;;;;0.00;0.00;;;;;;;;;;1732989;28;20215;-71
2022/08/26 04:59:11;;;;;;;0.00;0.00;;;;;;;;;;1732666;28;20641;-71
2022/08/26 05:00:03;;;;;;;0.00;0.00;;;;;;;;;;1733097;28;20640;-71
2022/08/26 05:00:55;;;;;;;0.00;0.00;;;;;;;;;;1731774;28;20456;-69
2022/08/26 05:01:49;;;;;;;0.00;0.00;;;;;;;;;;1732608;28;20261;-70
2022/08/26 05:02:40;;;;;;;0.00;0.00;;;;;;;;;;1732225;28;20273;-69
2022/08/26 05:03:32;;;;;;;0.00;0.00;;;;;;;;;;1732705;28;20202;-69
2022/08/26 05:04:24;;;;;;;0.00;0.00;;;;;;;;;;1732655;28;20211;-69
2022/08/26 05:05:16;;;;;;;0.00;0.00;;;;;;;;;;1731552;28;20209;-71
2022/08/26 05:06:07;;;;;;;0.00;0.00;;;;;;;;;;1733328;28;20223;-71
2022/08/26 05:06:59;;;;;;;0.00;0.00;;;;;;;;;;1732107;28;20222;-71
2022/08/26 05:07:50;;;;;;;0.00;0.00;;;;;;;;;;1732973;28;20211;-71
2022/08/26 05:08:43;;;;;;;0.00;0.00;;;;;;;;;;1732563;28;20211;-71
2022/08/26 05:09:34;;;;;;;0.00;0.00;;;;;;;;;;1732828;28;20318;-70
2022/08/26 05:10:27;;;;;;;0.00;0.00;;;;;;;;;;1731447;28;20192;-70
2022/08/26 05:11:19;;;;;;;0.00;0.00;;;;;;;;;;1732733;28;20204;-70
2022/08/26 05:12:11;;;;;;;0.00;0.00;;;;;;;;;;1733061;28;20645;-70
2022/08/26 05:13:02;;;;;;;0.00;0.00;;;;;;;;;;1733167;28;20273;-70
2022/08/26 05:13:54;;;;;;;0.00;0.00;;;;;;;;;;1732152;28;20322;-70
2022/08/26 05:14:49;;;;;;;0.00;0.00;;;;;;;;;;1725707;28;20208;-70
2022/08/26 05:15:41;;;;;;;0.00;0.00;;;;;;;;;;1727828;28;20244;-69
2022/08/26 05:16:32;;;;;;;0.00;0.00;;;;;;;;;;1727844;28;20204;-69
2022/08/26 05:17:25;;;;;;;0.00;0.00;;;;;;;;;;1730627;28;20545;-69
2022/08/26 05:18:18;;;;;;;0.00;0.00;;;;;;;;;;1732870;28;20237;-69